地図

経路データ

SID SEASON NUMBER BASIN SUBBASIN NAME ISO_TIME NATURE LAT LON WMO_WIND WMO_PRES WMO_AGENCY TRACK_TYPE DIST2LAND LANDFALL IFLAG USA_AGENCY USA_ATCF_ID USA_LAT USA_LON USA_RECORD USA_STATUS USA_WIND USA_PRES USA_SSHS USA_R34_NE USA_R34_SE USA_R34_SW USA_R34_NW USA_R50_NE USA_R50_SE USA_R50_SW USA_R50_NW USA_R64_NE USA_R64_SE USA_R64_SW USA_R64_NW USA_POCI USA_ROCI USA_RMW USA_EYE TOKYO_LAT TOKYO_LON TOKYO_GRADE TOKYO_WIND TOKYO_PRES TOKYO_R50_DIR TOKYO_R50_LONG TOKYO_R50_SHORT TOKYO_R30_DIR TOKYO_R30_LONG TOKYO_R30_SHORT TOKYO_LAND CMA_LAT CMA_LON CMA_CAT CMA_WIND CMA_PRES HKO_LAT HKO_LON HKO_CAT HKO_WIND HKO_PRES NEWDELHI_LAT NEWDELHI_LON NEWDELHI_GRADE NEWDELHI_WIND NEWDELHI_PRES NEWDELHI_CI NEWDELHI_DP NEWDELHI_POCI REUNION_LAT REUNION_LON REUNION_TYPE REUNION_WIND REUNION_PRES REUNION_TNUM REUNION_CI REUNION_RMW REUNION_R34_NE REUNION_R34_SE REUNION_R34_SW REUNION_R34_NW REUNION_R50_NE REUNION_R50_SE REUNION_R50_SW REUNION_R50_NW REUNION_R64_NE REUNION_R64_SE REUNION_R64_SW REUNION_R64_NW BOM_LAT BOM_LON BOM_TYPE BOM_WIND BOM_PRES BOM_TNUM BOM_CI BOM_RMW BOM_R34_NE BOM_R34_SE BOM_R34_SW BOM_R34_NW BOM_R50_NE BOM_R50_SE BOM_R50_SW BOM_R50_NW BOM_R64_NE BOM_R64_SE BOM_R64_SW BOM_R64_NW BOM_ROCI BOM_POCI BOM_EYE BOM_POS_METHOD BOM_PRES_METHOD NADI_LAT NADI_LON NADI_CAT NADI_WIND NADI_PRES WELLINGTON_LAT WELLINGTON_LON WELLINGTON_WIND WELLINGTON_PRES DS824_LAT DS824_LON DS824_STAGE DS824_WIND DS824_PRES TD9636_LAT TD9636_LON TD9636_STAGE TD9636_WIND TD9636_PRES TD9635_LAT TD9635_LON TD9635_WIND TD9635_PRES TD9635_ROCI NEUMANN_LAT NEUMANN_LON NEUMANN_CLASS NEUMANN_WIND NEUMANN_PRES MLC_LAT MLC_LON MLC_CLASS MLC_WIND MLC_PRES USA_GUST BOM_GUST BOM_GUST_PER REUNION_GUST REUNION_GUST_PER USA_SEAHGT USA_SEARAD_NE USA_SEARAD_SE USA_SEARAD_SW USA_SEARAD_NW STORM_SPEED STORM_DIR
1942123N10148 1942 21 WP MM NOT_NAMED 1942-05-02 12:00:00 NR 9.60000 147.600 main 1311 1311 __________O___ -1 9.60000 147.600 2 5 312
1942123N10148 1942 21 WP MM NOT_NAMED 1942-05-02 15:00:00 NR 9.77980 147.394 main 1333 1333 __________P___ -1 9.77980 147.394 2 5 312
1942123N10148 1942 21 WP MM NOT_NAMED 1942-05-02 18:00:00 NR 9.96762 147.190 main 1355 1355 __________P___ -1 9.96762 147.190 2 6 315
1942123N10148 1942 21 WP MM NOT_NAMED 1942-05-02 21:00:00 NR 10.1716 146.991 main 1378 1378 __________P___ -1 10.1716 146.991 2 6 318
1942123N10148 1942 21 WP MM NOT_NAMED 1942-05-03 00:00:00 NR 10.4000 146.800 main 1400 1400 __________O___ -1 10.4000 146.800 2 6 323
1942123N10148 1942 21 WP MM NOT_NAMED 1942-05-03 03:00:00 NR 10.6575 146.618 main 1434 1434 __________P___ -1 10.6575 146.618 2 6 327
1942123N10148 1942 21 WP MM NOT_NAMED 1942-05-03 06:00:00 NR 10.9349 146.442 main 1456 1456 __________P___ -1 10.9349 146.442 2 7 329
1942123N10148 1942 21 WP MM NOT_NAMED 1942-05-03 09:00:00 NR 11.2200 146.271 main 1490 1490 __________P___ -1 11.2200 146.271 2 7 329
1942123N10148 1942 21 WP MM NOT_NAMED 1942-05-03 12:00:00 NR 11.5000 146.100 main 1524 1524 __________O___ -1 11.5000 146.100 2 6 326
1942123N10148 1942 21 WP MM NOT_NAMED 1942-05-03 15:00:00 NR 11.7328 145.913 main 1548 1548 __________P___ -1 11.7328 145.913 2 6 322
1942123N10148 1942 21 WP MM NOT_NAMED 1942-05-03 18:00:00 NR 11.9625 145.727 main 1582 1582 __________P___ -1 11.9625 145.727 2 6 324
1942123N10148 1942 21 WP MM NOT_NAMED 1942-05-03 21:00:00 NR 12.2110 145.553 main 1606 1606 __________P___ -1 12.2110 145.553 2 6 329
1942123N10148 1942 21 WP MM NOT_NAMED 1942-05-04 00:00:00 NR 12.5000 145.400 main 1641 1641 __________O___ -1 12.5000 145.400 2 7 338
1942123N10148 1942 21 WP MM NOT_NAMED 1942-05-04 03:00:00 NR 12.8771 145.274 main 1686 1686 __________P___ -1 12.8771 145.274 2 8 344
1942123N10148 1942 21 WP MM NOT_NAMED 1942-05-04 06:00:00 NR 13.2924 145.170 main 1732 1732 __________P___ -1 13.2924 145.170 2 9 347
1942123N10148 1942 21 WP MM NOT_NAMED 1942-05-04 09:00:00 NR 13.7115 145.081 main 1777 1777 __________P___ -1 13.7115 145.081 2 8 348
1942123N10148 1942 21 WP MM NOT_NAMED 1942-05-04 12:00:00 NR 14.1000 145.000 main 1823 1823 __________O___ -1 14.1000 145.000 3 7 347
1942123N10148 1942 21 WP MM NOT_NAMED 1942-05-04 15:00:00 NR 14.3987 144.918 main 1857 1857 __________P___ -1 14.3987 144.918 3 6 345
1942123N10148 1942 21 WP MM NOT_NAMED 1942-05-04 18:00:00 NR 14.6650 144.842 main 1892 1892 __________P___ -1 14.6650 144.842 3 5 345
1942123N10148 1942 21 WP MM NOT_NAMED 1942-05-04 21:00:00 NR 14.9237 144.771 main 1914 1914 __________P___ -1 14.9237 144.771 3 6 346
1942123N10148 1942 21 WP MM NOT_NAMED 1942-05-05 00:00:00 NR 15.2000 144.700 main 1949 1949 __________O___ -1 15.2000 144.700 4 6 348
1942123N10148 1942 21 WP MM NOT_NAMED 1942-05-05 03:00:00 NR 15.5203 144.637 main 1983 1983 __________P___ -1 15.5203 144.637 4 7 349
1942123N10148 1942 21 WP MM NOT_NAMED 1942-05-05 06:00:00 NR 15.8624 144.572 main 2028 2028 __________P___ -1 15.8624 144.572 4 7 349
1942123N10148 1942 21 WP MM NOT_NAMED 1942-05-05 09:00:00 NR 16.2234 144.496 main 2062 2062 __________P___ -1 16.2234 144.496 4 8 347
1942123N10148 1942 21 WP MM NOT_NAMED 1942-05-05 12:00:00 NR 16.6000 144.400 main 2064 2019 __________O___ -1 16.6000 144.400 4 8 344
1942123N10148 1942 21 WP MM NOT_NAMED 1942-05-05 15:00:00 NR 16.9816 144.264 main 2019 1969 __________P___ -1 16.9816 144.264 4 8 340
1942123N10148 1942 21 WP MM NOT_NAMED 1942-05-05 18:00:00 NR 17.3776 144.108 main 1969 1924 __________P___ -1 17.3776 144.108 4 9 339
1942123N10148 1942 21 WP MM NOT_NAMED 1942-05-05 21:00:00 NR 17.7848 143.948 main 1920 1875 __________P___ -1 17.7848 143.948 4 9 340
1942123N10148 1942 21 WP MM NOT_NAMED 1942-05-06 00:00:00 NR 18.2000 143.800 main 1875 1830 __________O___ -1 18.2000 143.800 4 9 343
1942123N10148 1942 21 WP MM NOT_NAMED 1942-05-06 03:00:00 NR 18.6218 143.685 main 1830 1784 __________P___ -1 18.6218 143.685 4 9 347
1942123N10148 1942 21 WP MM NOT_NAMED 1942-05-06 06:00:00 NR 19.0499 143.585 main 1784 1729 __________P___ -1 19.0499 143.585 4 9 348
1942123N10148 1942 21 WP MM NOT_NAMED 1942-05-06 09:00:00 NR 19.4781 143.492 main 1729 1684 __________P___ -1 19.4781 143.492 4 9 348
1942123N10148 1942 21 WP MM NOT_NAMED 1942-05-06 12:00:00 NR 19.9000 143.400 main 1684 1639 __________O___ -1 19.9000 143.400 4 8 346
1942123N10148 1942 21 WP MM NOT_NAMED 1942-05-06 15:00:00 NR 20.2788 143.284 main 1639 1604 __________P___ -1 20.2788 143.284 4 8 344
1942123N10148 1942 21 WP MM NOT_NAMED 1942-05-06 18:00:00 NR 20.6551 143.170 main 1594 1560 __________P___ -1 20.6551 143.170 4 8 346
1942123N10148 1942 21 WP MM NOT_NAMED 1942-05-06 21:00:00 NR 21.0538 143.071 main 1549 1505 __________P___ -1 21.0538 143.071 4 9 349
1942123N10148 1942 21 WP MM NOT_NAMED 1942-05-07 00:00:00 NR 21.5000 143.000 main 1505 1450 __________O___ -1 21.5000 143.000 4 10 352
1942123N10148 1942 21 WP MM NOT_NAMED 1942-05-07 03:00:00 NR 22.0488 142.919 main 1450 1391 __________P___ -1 22.0488 142.919 4 12 354
1942123N10148 1942 21 WP MM NOT_NAMED 1942-05-07 06:00:00 NR 22.6421 142.874 main 1391 1332 __________P___ -1 22.6421 142.874 4 12 0
1942123N10148 1942 21 WP MM NOT_NAMED 1942-05-07 09:00:00 NR 23.2393 142.892 main 1332 1271 __________P___ -1 23.2393 142.892 4 12 6
1942123N10148 1942 21 WP MM NOT_NAMED 1942-05-07 12:00:00 NR 23.8000 143.000 main 1271 1224 __________O___ -1 23.8000 143.000 4 11 16
1942123N10148 1942 21 WP MM NOT_NAMED 1942-05-07 15:00:00 NR 24.2927 143.226 main 1224 1189 __________P___ -1 24.2927 143.226 4 11 28
1942123N10148 1942 21 WP MM NOT_NAMED 1942-05-07 18:00:00 NR 24.7403 143.544 main 1189 1155 __________P___ -1 24.7403 143.544 4 11 36
1942123N10148 1942 21 WP MM NOT_NAMED 1942-05-07 21:00:00 NR 25.1427 143.914 main 1158 1130 __________P___ -1 25.1427 143.914 4 10 42
1942123N10148 1942 21 WP MM NOT_NAMED 1942-05-08 00:00:00 NR 25.5000 144.300 main 1130 1110 __________O___ -1 25.5000 144.300 4 9 44
1942123N10148 1942 21 WP MM NOT_NAMED 1942-05-08 03:00:00 NR 25.8218 144.632 main 1110 1091 __________P___ -1 25.8218 144.632 4 9 45
1942123N10148 1942 21 WP MM NOT_NAMED 1942-05-08 06:00:00 NR 26.1019 144.971 main 1095 1084 __________P___ -1 26.1019 144.971 4 8 49
1942123N10148 1942 21 WP MM NOT_NAMED 1942-05-08 09:00:00 NR 26.3561 145.325 main 1079 1073 __________P___ -1 26.3561 145.325 4 8 53
1942123N10148 1942 21 WP MM NOT_NAMED 1942-05-08 12:00:00 NR 26.6000 145.700 main 1078 1068 __________O___ -1 26.6000 145.700 4 8 55
1942123N10148 1942 21 WP MM NOT_NAMED 1942-05-08 15:00:00 NR 26.8464 146.100 main 1079 1067 __________P___ -1 26.8464 146.100 4 9 56
1942123N10148 1942 21 WP MM NOT_NAMED 1942-05-08 18:00:00 NR 27.0963 146.520 main 1072 1068 __________P___ -1 27.0963 146.520 4 9 57
1942123N10148 1942 21 WP MM NOT_NAMED 1942-05-08 21:00:00 NR 27.3481 146.956 main 1080 1069 __________P___ -1 27.3481 146.956 4 9 57
1942123N10148 1942 21 WP MM NOT_NAMED 1942-05-09 00:00:00 NR 27.6000 147.400 main 1075 __________O___ -1 27.6000 147.400 4 9 57

デジタル台風データ・検索

IBTrACS Databaseについて

本データベースは、米国NOAAが公開する1842年以降の世界の熱帯低気圧のベストトラックデータアーカイブInternational Best Track Archive for Climate Stewardship (IBTrACS)を、ウェブで閲覧しやすい形式に変換したものです。

最終更新日:2021-12-06